Time;durP1;ratioP1;P1;durP2;ratioP2;P2;SDS_P1;SDS_P2;PMS_P1;PMS_P2;Temp;Humidity;BMP_temperature;BMP_pressure;BME280_temperature;BME280_humidity;BME280_pressure;Samples;Min_cycle;Max_cycle;Signal;HPM_P1;HPM_P2
2022/10/21 00:00:13;;;;;;;19.77;17.88;;;14.00;99.90;;;;;;5030732;28;20430;-68
2022/10/21 00:02:40;;;;;;;18.85;17.05;;;14.00;99.90;;;;;;5028552;28;20533;-68
2022/10/21 00:05:07;;;;;;;18.60;16.90;;;14.00;99.90;;;;;;5040186;28;21136;-68
2022/10/21 00:07:36;;;;;;;19.98;18.10;;;14.00;99.90;;;;;;5023448;28;21106;-68
2022/10/21 00:10:04;;;;;;;18.42;16.52;;;14.00;99.90;;;;;;5044116;28;20421;-68
2022/10/21 00:12:31;;;;;;;18.08;16.30;;;14.00;99.90;;;;;;5038911;28;20419;-68
2022/10/21 00:14:58;;;;;;;17.30;15.70;;;14.00;99.90;;;;;;5030325;28;20465;-67
2022/10/21 00:17:25;;;;;;;17.10;15.50;;;14.00;99.90;;;;;;5029378;28;20469;-67
2022/10/21 00:19:52;;;;;;;17.75;16.15;;;14.00;99.90;;;;;;5028359;28;20434;-66
2022/10/21 00:22:18;;;;;;;18.15;16.48;;;14.00;99.90;;;;;;5022530;28;20916;-68
2022/10/21 00:24:46;;;;;;;18.42;16.73;;;14.00;99.90;;;;;;5029961;28;20440;-68
2022/10/21 00:27:13;;;;;;;16.70;15.20;;;14.00;99.90;;;;;;5029663;28;21005;-68
2022/10/21 00:29:40;;;;;;;16.83;15.23;;;14.00;99.90;;;;;;5029903;28;20423;-67
2022/10/21 00:32:07;;;;;;;16.90;15.20;;;13.90;99.90;;;;;;5029801;28;20426;-68
2022/10/21 00:34:34;;;;;;;18.20;16.60;;;13.90;99.90;;;;;;5028844;28;20435;-67
2022/10/21 00:37:00;;;;;;;19.15;16.42;;;13.90;99.90;;;;;;5020350;28;20466;-67
2022/10/21 00:39:27;;;;;;;17.95;16.35;;;13.90;99.90;;;;;;5021807;28;20984;-67
2022/10/21 00:41:55;;;;;;;17.30;15.70;;;13.80;99.90;;;;;;5029447;28;20419;-67
2022/10/21 00:44:22;;;;;;;16.83;15.23;;;13.90;99.90;;;;;;5029448;28;20419;-66
2022/10/21 00:46:52;;;;;;;16.50;14.90;;;13.80;99.90;;;;;;5029129;28;20415;-66
2022/10/21 00:49:23;;;;;;;15.40;14.00;;;13.80;99.90;;;;;;5024102;28;21075;-65
2022/10/21 00:51:54;;;;;;;14.73;13.43;;;13.90;99.90;;;;;;5029539;28;20914;-67
2022/10/21 00:54:23;;;;;;;15.60;14.20;;;13.90;99.90;;;;;;5029029;28;20430;-66
2022/10/21 00:56:52;;;;;;;14.60;13.30;;;13.90;99.90;;;;;;5029427;28;20434;-67
2022/10/21 00:59:21;;;;;;;15.38;14.00;;;13.90;99.90;;;;;;5028730;28;20809;-66
2022/10/21 01:01:49;;;;;;;15.27;13.77;;;13.90;99.90;;;;;;5029468;28;20427;-66
2022/10/21 01:04:15;;;;;;;15.25;13.88;;;13.90;99.90;;;;;;5021528;28;20919;-67
2022/10/21 01:06:43;;;;;;;14.77;13.45;;;13.90;99.90;;;;;;5025389;28;20920;-66
2022/10/21 01:09:10;;;;;;;15.43;13.93;;;13.90;99.90;;;;;;5029166;28;20433;-67
2022/10/21 01:11:44;;;;;;;14.33;12.93;;;13.90;99.90;;;;;;5028054;28;22026;-67
2022/10/21 01:14:28;;;;;;;14.13;12.73;;;13.90;99.90;;;;;;5027884;28;20423;-67
2022/10/21 01:17:07;;;;;;;14.30;13.10;;;13.90;99.90;;;;;;5028118;28;20430;-67
2022/10/21 01:20:06;;;;;;;12.88;11.65;;;13.90;99.90;;;;;;5029440;28;20426;-67
2022/10/21 01:22:50;;;;;;;12.30;11.10;;;13.90;99.90;;;;;;5015008;28;20431;-68
2022/10/21 01:25:35;;;;;;;12.30;11.30;;;13.90;99.90;;;;;;5028921;28;20510;-67
2022/10/21 01:28:15;;;;;;;11.80;10.80;;;13.90;99.90;;;;;;5028719;28;20426;-66
2022/10/21 01:30:48;;;;;;;11.52;10.52;;;13.90;99.90;;;;;;5024409;28;20552;-67
2022/10/21 01:33:39;;;;;;;12.40;11.20;;;13.90;99.90;;;;;;5024171;28;20935;-65
2022/10/21 01:36:14;;;;;;;10.63;9.63;;;13.90;99.90;;;;;;5027570;28;20514;-67
2022/10/21 01:38:43;;;;;;;11.20;10.10;;;14.00;99.90;;;;;;5021779;28;20497;-67
2022/10/21 01:41:15;;;;;;;10.50;9.60;;;14.00;99.90;;;;;;5015670;28;20415;-67
2022/10/21 01:43:48;;;;;;;10.77;9.75;;;14.00;99.90;;;;;;5027804;28;20505;-67
2022/10/21 01:46:23;;;;;;;9.90;9.00;;;14.00;99.90;;;;;;5023500;28;21115;-67
2022/10/21 01:48:54;;;;;;;9.73;8.70;;;14.00;99.90;;;;;;5025081;28;20908;-66
2022/10/21 01:51:23;;;;;;;9.90;8.90;;;14.10;99.90;;;;;;5028264;28;20425;-67
2022/10/21 01:53:53;;;;;;;8.95;8.25;;;14.10;99.90;;;;;;5028026;28;20900;-67
2022/10/21 01:56:21;;;;;;;8.63;7.93;;;14.10;99.90;;;;;;5028316;28;20513;-67
2022/10/21 01:58:50;;;;;;;8.55;7.85;;;14.10;99.90;;;;;;5027703;28;20432;-67
2022/10/21 02:01:20;;;;;;;9.45;8.65;;;14.20;99.90;;;;;;5027632;28;20438;-67
2022/10/21 02:03:52;;;;;;;9.80;8.90;;;14.20;99.90;;;;;;5025707;28;20423;-67
2022/10/21 02:06:18;;;;;;;9.50;8.70;;;14.20;99.90;;;;;;5029478;28;20781;-67
2022/10/21 02:08:45;;;;;;;9.88;8.88;;;14.20;99.80;;;;;;5027909;28;20897;-67
2022/10/21 02:11:12;;;;;;;8.90;8.10;;;14.20;99.70;;;;;;5028026;28;20781;-66
2022/10/21 02:13:44;;;;;;;9.88;8.98;;;14.20;99.70;;;;;;5027928;28;20423;-66
2022/10/21 02:16:16;;;;;;;9.60;8.80;;;14.20;99.60;;;;;;5023912;28;20918;-67
2022/10/21 02:18:44;;;;;;;9.35;8.45;;;14.20;99.50;;;;;;5020952;28;20454;-67
2022/10/21 02:21:16;;;;;;;8.88;8.02;;;14.20;99.50;;;;;;5027825;28;20430;-67
2022/10/21 02:23:50;;;;;;;8.88;8.10;;;14.20;99.50;;;;;;5027983;28;20462;-66
2022/10/21 02:26:18;;;;;;;9.23;8.32;;;14.20;99.50;;;;;;5027061;28;20429;-67
2022/10/21 02:28:44;;;;;;;9.27;8.48;;;14.10;99.50;;;;;;5027782;28;20427;-65
2022/10/21 02:31:27;;;;;;;10.73;9.63;;;14.10;99.60;;;;;;5024145;28;20432;-67
2022/10/21 02:34:05;;;;;;;9.00;8.20;;;14.00;99.70;;;;;;5025236;28;20805;-67
2022/10/21 02:36:39;;;;;;;10.48;9.38;;;13.90;99.80;;;;;;5019579;28;20435;-68
2022/10/21 02:39:12;;;;;;;10.07;9.15;;;13.90;99.90;;;;;;5027786;28;20418;-67
2022/10/21 02:41:42;;;;;;;10.90;9.80;;;13.80;99.90;;;;;;5027511;28;20411;-67
2022/10/21 02:44:08;;;;;;;10.90;9.90;;;13.80;99.90;;;;;;5025566;28;20434;-67
2022/10/21 02:46:37;;;;;;;10.80;9.80;;;13.80;99.90;;;;;;5021074;28;20421;-66
2022/10/21 02:49:06;;;;;;;10.20;9.30;;;13.70;99.90;;;;;;5025179;28;20852;-66
2022/10/21 02:51:33;;;;;;;10.35;9.45;;;13.70;99.90;;;;;;5027331;28;20427;-67
2022/10/21 02:53:59;;;;;;;11.40;10.25;;;13.70;99.90;;;;;;5028983;28;20422;-67
2022/10/21 02:56:27;;;;;;;10.80;9.70;;;13.70;99.90;;;;;;5027611;28;20809;-67
2022/10/21 02:58:53;;;;;;;11.48;10.27;;;13.70;99.90;;;;;;5026446;28;20427;-67
2022/10/21 03:01:20;;;;;;;11.75;10.65;;;13.70;99.90;;;;;;5023237;28;20895;-66
2022/10/21 03:03:47;;;;;;;10.00;9.10;;;13.70;99.90;;;;;;5026697;28;20423;-66
2022/10/21 03:06:15;;;;;;;10.00;9.20;;;13.70;99.90;;;;;;5027404;28;20613;-67
2022/10/21 03:08:42;;;;;;;9.52;8.52;;;13.70;99.90;;;;;;5027512;28;20415;-66
2022/10/21 03:11:09;;;;;;;10.57;9.68;;;13.70;99.90;;;;;;5027256;28;20414;-67
2022/10/21 03:13:35;;;;;;;9.80;8.90;;;13.70;99.90;;;;;;5026230;28;20446;-65
2022/10/21 03:16:02;;;;;;;9.20;8.30;;;13.70;99.90;;;;;;5021507;28;20422;-67
2022/10/21 03:18:29;;;;;;;9.20;8.30;;;13.70;99.90;;;;;;5014135;28;20794;-66
2022/10/21 03:20:55;;;;;;;8.55;7.75;;;13.70;99.90;;;;;;5027561;28;20426;-65
2022/10/21 03:23:24;;;;;;;8.75;7.85;;;13.70;99.90;;;;;;5027194;28;20441;-67
2022/10/21 03:25:50;;;;;;;8.18;7.47;;;13.80;99.90;;;;;;5026904;28;20439;-67
2022/10/21 03:28:17;;;;;;;9.15;8.25;;;13.80;99.90;;;;;;5026625;28;20430;-67
2022/10/21 03:30:44;;;;;;;8.40;7.70;;;13.80;99.90;;;;;;5026754;28;20435;-66
2022/10/21 03:33:10;;;;;;;9.63;8.30;;;13.80;99.90;;;;;;5020593;28;20431;-67
2022/10/21 03:35:37;;;;;;;8.68;7.88;;;13.80;99.90;;;;;;5023311;28;20465;-66
2022/10/21 03:38:04;;;;;;;9.07;8.27;;;13.80;99.90;;;;;;5028238;28;20450;-66
2022/10/21 03:40:32;;;;;;;9.88;8.75;;;13.80;99.90;;;;;;5020876;28;20426;-67
2022/10/21 03:42:59;;;;;;;9.90;8.90;;;13.80;99.90;;;;;;5028053;28;20727;-67
2022/10/21 03:45:26;;;;;;;9.77;8.77;;;13.70;99.90;;;;;;5028737;28;20436;-65
2022/10/21 03:47:53;;;;;;;9.18;8.35;;;13.80;99.90;;;;;;5032033;28;20873;-66
2022/10/21 03:50:20;;;;;;;9.10;8.30;;;13.70;99.90;;;;;;5030869;28;20435;-67
2022/10/21 03:52:47;;;;;;;9.30;8.50;;;13.70;99.90;;;;;;5031273;28;20422;-67
2022/10/21 03:55:15;;;;;;;10.27;9.20;;;13.70;99.90;;;;;;5031602;28;20427;-67
2022/10/21 03:57:44;;;;;;;9.80;8.80;;;13.70;99.90;;;;;;5030701;28;20944;-63
2022/10/21 04:00:12;;;;;;;8.90;8.10;;;13.60;99.90;;;;;;5032547;28;20429;-65
2022/10/21 04:02:39;;;;;;;9.88;8.60;;;13.60;99.90;;;;;;5026468;28;20433;-65
2022/10/21 04:05:07;;;;;;;9.15;8.27;;;13.70;99.90;;;;;;5030026;28;20426;-66
2022/10/21 04:07:33;;;;;;;9.27;8.10;;;13.70;99.90;;;;;;5030377;28;20419;-67
2022/10/21 04:10:00;;;;;;;8.43;7.57;;;13.60;99.90;;;;;;5046874;28;20535;-66
2022/10/21 04:12:27;;;;;;;8.77;7.80;;;13.70;99.90;;;;;;5034830;28;20431;-66
2022/10/21 04:14:55;;;;;;;8.45;7.22;;;13.70;99.90;;;;;;5027987;28;20431;-67
2022/10/21 04:17:21;;;;;;;8.00;7.22;;;13.80;99.90;;;;;;5029211;28;20427;-66
2022/10/21 04:19:48;;;;;;;10.75;7.85;;;13.80;99.90;;;;;;5028869;28;20446;-66
2022/10/21 04:22:15;;;;;;;8.70;7.78;;;13.70;99.90;;;;;;5029421;28;20422;-66
2022/10/21 04:24:42;;;;;;;6.80;6.20;;;13.80;99.90;;;;;;5027496;28;20749;-66
2022/10/21 04:27:08;;;;;;;7.50;6.80;;;13.80;99.90;;;;;;5029865;28;20793;-66
2022/10/21 04:29:35;;;;;;;7.38;6.68;;;13.80;99.90;;;;;;5029040;28;20508;-66
2022/10/21 04:32:03;;;;;;;7.88;6.47;;;13.80;99.90;;;;;;5022386;28;20425;-67
2022/10/21 04:34:30;;;;;;;8.90;7.05;;;13.90;99.90;;;;;;5030668;28;20419;-66
2022/10/21 04:36:57;;;;;;;9.20;7.05;;;13.90;99.90;;;;;;5029602;28;20443;-66
2022/10/21 04:39:23;;;;;;;7.43;6.68;;;13.90;99.90;;;;;;5024985;28;20432;-66
2022/10/21 04:41:51;;;;;;;6.53;5.93;;;13.90;99.90;;;;;;5027869;28;20497;-66
2022/10/21 04:44:18;;;;;;;6.53;5.93;;;13.90;99.90;;;;;;5023844;28;20515;-66
2022/10/21 04:46:45;;;;;;;8.98;6.00;;;13.90;99.80;;;;;;5025691;28;20540;-66
2022/10/21 04:49:13;;;;;;;8.27;6.70;;;14.00;99.70;;;;;;5028126;28;20411;-66
2022/10/21 04:51:40;;;;;;;8.20;7.07;;;14.00;99.60;;;;;;5034107;28;20452;-66
2022/10/21 04:54:07;;;;;;;8.32;6.53;;;14.00;99.60;;;;;;5016316;28;20426;-66
2022/10/21 04:56:34;;;;;;;8.55;6.60;;;14.00;99.50;;;;;;5028725;28;20913;-65
2022/10/21 04:59:00;;;;;;;11.82;7.10;;;14.00;99.50;;;;;;5017448;28;20438;-66
2022/10/21 05:01:27;;;;;;;7.93;6.70;;;14.10;99.40;;;;;;5028417;28;20429;-66
2022/10/21 05:03:54;;;;;;;9.20;6.80;;;14.00;99.40;;;;;;5022457;28;20426;-65
2022/10/21 05:06:22;;;;;;;9.20;7.40;;;14.10;99.40;;;;;;5027823;28;20415;-65
2022/10/21 05:08:49;;;;;;;8.37;6.50;;;14.10;99.30;;;;;;5117294;22;20495;-70
2022/10/21 05:11:15;;;;;;;8.20;6.80;;;14.10;99.40;;;;;;5125560;27;20416;-72
2022/10/21 05:13:42;;;;;;;10.60;7.50;;;14.10;99.30;;;;;;5128811;27;20426;-70
2022/10/21 05:16:09;;;;;;;8.47;7.20;;;14.10;99.20;;;;;;5125535;27;20623;-70
2022/10/21 05:18:35;;;;;;;8.63;6.60;;;14.10;99.10;;;;;;5121861;27;20518;-70
2022/10/21 05:21:02;;;;;;;10.60;6.20;;;14.10;99.10;;;;;;5099306;28;20421;-70
2022/10/21 05:23:30;;;;;;;6.50;5.10;;;14.10;99.00;;;;;;5103279;28;20457;-70
2022/10/21 05:25:57;;;;;;;6.03;5.43;;;14.10;98.90;;;;;;5101968;28;20419;-71
2022/10/21 05:28:24;;;;;;;5.90;5.28;;;14.10;98.80;;;;;;5106990;28;20437;-72
2022/10/21 05:30:52;;;;;;;6.10;5.20;;;14.20;98.80;;;;;;5107570;28;21197;-70
2022/10/21 05:33:18;;;;;;;5.60;4.97;;;14.10;98.60;;;;;;5104139;28;20428;-70
2022/10/21 05:35:54;;;;;;;6.30;5.70;;;14.10;98.60;;;;;;5112106;27;20412;-73
2022/10/21 05:38:21;;;;;;;5.65;5.00;;;14.10;98.70;;;;;;5108553;27;20942;-70
2022/10/21 05:40:49;;;;;;;5.18;4.50;;;14.10;98.70;;;;;;5099844;28;20416;-71
2022/10/21 05:43:16;;;;;;;5.63;5.10;;;14.20;98.60;;;;;;5101658;28;20441;-71
2022/10/21 05:45:42;;;;;;;5.10;4.60;;;14.20;98.70;;;;;;5101533;28;20916;-71
2022/10/21 05:48:09;;;;;;;5.20;4.63;;;14.20;98.70;;;;;;5109008;28;20479;-72
2022/10/21 05:50:36;;;;;;;5.50;4.93;;;14.20;98.60;;;;;;5109626;28;20458;-72
2022/10/21 05:53:02;;;;;;;5.35;4.95;;;14.20;98.50;;;;;;5108544;28;20930;-72
2022/10/21 05:55:29;;;;;;;6.53;5.05;;;14.20;98.50;;;;;;5105730;28;20412;-72
2022/10/21 05:57:57;;;;;;;5.10;4.70;;;14.20;98.50;;;;;;5106227;28;20431;-71
2022/10/21 06:00:24;;;;;;;5.47;4.97;;;14.20;98.50;;;;;;5112056;27;20413;-71
2022/10/21 06:02:51;;;;;;;5.40;4.90;;;14.20;98.50;;;;;;5107048;27;20433;-72
2022/10/21 06:05:18;;;;;;;5.03;4.57;;;14.20;98.50;;;;;;5110008;28;20412;-72
2022/10/21 06:07:44;;;;;;;5.13;4.72;;;14.30;98.40;;;;;;5116998;28;20491;-71
2022/10/21 06:10:11;;;;;;;4.60;4.20;;;14.30;98.30;;;;;;5109560;28;20986;-69
2022/10/21 06:12:38;;;;;;;5.28;4.60;;;14.30;98.30;;;;;;5104383;27;20435;-71
2022/10/21 06:15:08;;;;;;;5.05;4.65;;;14.30;98.20;;;;;;5122430;27;20414;-71
2022/10/21 06:17:35;;;;;;;4.63;4.22;;;14.30;98.10;;;;;;5115882;27;20814;-72
2022/10/21 06:20:02;;;;;;;4.90;4.50;;;14.30;98.10;;;;;;5128829;27;20434;-71
2022/10/21 06:22:28;;;;;;;4.60;4.28;;;14.30;98.10;;;;;;5128981;27;20411;-71
2022/10/21 06:24:55;;;;;;;6.03;4.32;;;14.30;98.00;;;;;;5105149;27;20410;-70
2022/10/21 06:27:22;;;;;;;5.50;4.40;;;14.30;98.00;;;;;;5102246;28;21132;-70
2022/10/21 06:29:50;;;;;;;5.05;4.00;;;14.30;97.80;;;;;;5105810;27;20423;-71
2022/10/21 06:32:18;;;;;;;7.38;4.80;;;14.40;98.00;;;;;;5110324;27;20428;-69
2022/10/21 06:34:45;;;;;;;5.17;4.63;;;14.40;97.90;;;;;;5113382;27;20412;-70
2022/10/21 06:37:11;;;;;;;7.30;4.40;;;14.30;97.90;;;;;;5122924;27;20408;-70
2022/10/21 06:39:38;;;;;;;5.53;4.53;;;14.40;97.90;;;;;;5129083;27;20423;-69
2022/10/21 06:42:05;;;;;;;5.10;4.30;;;14.40;97.90;;;;;;5112666;28;20914;-71
2022/10/21 06:44:31;;;;;;;5.00;4.50;;;14.40;97.90;;;;;;5110990;27;20912;-70
2022/10/21 06:46:58;;;;;;;5.93;4.55;;;14.40;97.90;;;;;;5106948;27;20420;-70
2022/10/21 06:49:26;;;;;;;7.25;5.22;;;14.40;98.00;;;;;;5103554;28;20420;-70
2022/10/21 06:51:53;;;;;;;4.80;4.40;;;14.40;98.00;;;;;;5110270;28;20412;-70
2022/10/21 06:54:20;;;;;;;5.30;4.80;;;14.40;97.90;;;;;;5114683;27;20433;-70
2022/10/21 06:56:46;;;;;;;4.80;4.40;;;14.40;97.80;;;;;;5097536;28;20802;-69
2022/10/21 06:59:13;;;;;;;4.80;4.30;;;14.50;97.90;;;;;;5098798;28;20424;-70
2022/10/21 07:01:40;;;;;;;5.80;4.40;;;14.50;97.80;;;;;;5109724;28;20518;-71
2022/10/21 07:04:06;;;;;;;5.50;4.30;;;14.50;97.80;;;;;;5109040;28;20419;-69
2022/10/21 07:06:35;;;;;;;7.00;4.40;;;14.50;97.80;;;;;;5135903;28;20863;-70
2022/10/21 07:09:02;;;;;;;4.88;4.20;;;14.50;97.80;;;;;;5119760;28;21206;-71
2022/10/21 07:11:28;;;;;;;5.68;3.80;;;14.50;97.80;;;;;;5105581;28;20450;-71
2022/10/21 07:13:55;;;;;;;5.50;4.30;;;14.60;97.70;;;;;;5127913;27;20401;-69
2022/10/21 07:16:25;;;;;;;5.25;3.90;;;14.60;97.70;;;;;;5132833;27;20424;-69
2022/10/21 07:18:51;;;;;;;6.32;4.10;;;14.60;97.70;;;;;;5147468;27;20406;-69
2022/10/21 07:21:20;;;;;;;4.20;3.80;;;14.60;97.70;;;;;;5125100;27;20521;-71
2022/10/21 07:23:50;;;;;;;5.35;4.00;;;14.70;97.80;;;;;;5113159;28;20453;-69
2022/10/21 07:26:17;;;;;;;4.57;3.60;;;14.60;97.70;;;;;;5108602;28;20427;-70
2022/10/21 07:28:46;;;;;;;4.72;4.15;;;14.60;97.70;;;;;;5107692;28;20410;-71
2022/10/21 07:31:13;;;;;;;6.40;4.10;;;14.70;97.80;;;;;;5099800;28;20424;-71
2022/10/21 07:33:40;;;;;;;5.20;3.85;;;14.70;97.60;;;;;;5111286;28;20416;-70
2022/10/21 07:36:09;;;;;;;4.90;3.80;;;14.70;97.50;;;;;;5100381;28;20416;-70
2022/10/21 07:38:37;;;;;;;5.70;4.40;;;14.70;97.40;;;;;;5103851;28;20427;-72
2022/10/21 07:41:05;;;;;;;4.90;4.07;;;14.70;97.30;;;;;;5102224;28;20431;-69
2022/10/21 07:43:33;;;;;;;4.10;3.70;;;14.70;97.30;;;;;;5107381;28;20597;-70
2022/10/21 07:46:00;;;;;;;4.20;3.80;;;14.80;97.10;;;;;;5133473;27;20418;-70
2022/10/21 07:48:26;;;;;;;4.20;3.90;;;14.80;96.80;;;;;;5141258;27;20411;-70
2022/10/21 07:50:53;;;;;;;5.30;4.00;;;14.80;96.90;;;;;;5128794;27;20936;-70
2022/10/21 07:53:24;;;;;;;4.95;4.18;;;14.80;96.90;;;;;;5130428;27;20415;-70
2022/10/21 07:56:01;;;;;;;5.53;4.00;;;14.90;96.90;;;;;;5110512;28;20432;-70
2022/10/21 07:58:29;;;;;;;4.82;4.35;;;14.90;96.80;;;;;;5112088;28;20913;-69
2022/10/21 08:00:58;;;;;;;6.80;4.20;;;14.90;96.70;;;;;;5110871;28;20416;-70
2022/10/21 08:03:25;;;;;;;4.65;4.20;;;14.90;96.80;;;;;;5113375;27;20426;-70
2022/10/21 08:05:52;;;;;;;5.30;4.20;;;14.90;96.70;;;;;;5110728;28;20416;-71
2022/10/21 08:08:20;;;;;;;5.60;4.07;;;14.90;96.80;;;;;;5114994;27;20417;-73
2022/10/21 08:10:47;;;;;;;5.75;4.18;;;14.90;96.70;;;;;;5110086;27;20451;-72
2022/10/21 08:13:14;;;;;;;5.25;4.20;;;14.90;96.70;;;;;;5111080;27;20412;-71
2022/10/21 08:15:43;;;;;;;5.90;4.10;;;14.90;96.70;;;;;;5110094;28;20462;-72
2022/10/21 08:18:10;;;;;;;5.22;4.03;;;14.90;96.70;;;;;;5110372;28;20417;-72
2022/10/21 08:20:39;;;;;;;4.50;4.10;;;14.90;96.70;;;;;;5110401;28;20424;-73
2022/10/21 08:23:06;;;;;;;4.53;4.13;;;14.90;96.80;;;;;;5108692;28;20416;-72
2022/10/21 08:25:33;;;;;;;5.80;4.78;;;14.90;96.70;;;;;;5101037;27;20436;-72
2022/10/21 08:27:59;;;;;;;5.55;4.50;;;14.90;96.70;;;;;;5113422;27;20422;-71
2022/10/21 08:30:28;;;;;;;4.63;4.22;;;14.90;96.80;;;;;;5095971;28;20410;-72
2022/10/21 08:32:57;;;;;;;4.97;4.43;;;14.90;96.90;;;;;;5115051;27;20904;-72
2022/10/21 08:35:23;;;;;;;7.93;4.80;;;14.90;97.10;;;;;;5106043;27;20432;-72
2022/10/21 08:37:50;;;;;;;7.22;5.40;;;14.80;97.40;;;;;;5120290;27;20414;-72
2022/10/21 08:40:18;;;;;;;11.10;6.13;;;14.80;97.80;;;;;;5110291;27;20431;-73
2022/10/21 08:42:45;;;;;;;8.15;6.00;;;14.80;98.30;;;;;;5110483;27;20427;-72
2022/10/21 08:45:19;;;;;;;9.05;6.63;;;14.70;98.70;;;;;;5126853;27;20414;-74
2022/10/21 08:47:51;;;;;;;6.67;6.07;;;14.60;99.30;;;;;;5131678;27;20406;-74
2022/10/21 08:50:22;;;;;;;7.10;6.40;;;14.50;99.80;;;;;;5111091;27;20503;-73
2022/10/21 08:52:52;;;;;;;8.07;7.28;;;14.40;99.90;;;;;;5102791;28;20427;-71
2022/10/21 08:55:22;;;;;;;7.30;6.60;;;14.40;99.90;;;;;;5109520;27;20424;-73
2022/10/21 08:57:52;;;;;;;9.20;6.85;;;14.40;99.90;;;;;;5107828;28;20928;-74
2022/10/21 09:00:21;;;;;;;9.43;6.88;;;14.40;99.90;;;;;;5106723;28;20443;-73
2022/10/21 09:03:07;;;;;;;7.63;6.82;;;14.40;99.90;;;;;;5105202;28;20428;-73
2022/10/21 09:05:58;;;;;;;8.50;7.70;;;14.40;99.90;;;;;;5107775;28;20451;-73
2022/10/21 09:08:32;;;;;;;8.02;7.22;;;14.30;99.90;;;;;;5110571;28;20408;-74
2022/10/21 09:11:08;;;;;;;8.90;8.00;;;14.30;99.90;;;;;;5102789;28;20421;-74
2022/10/21 09:13:54;;;;;;;9.38;7.50;;;14.30;99.90;;;;;;5110614;28;20424;-74
2022/10/21 09:16:29;;;;;;;7.90;7.10;;;14.30;99.90;;;;;;5109182;27;20447;-74
2022/10/21 09:19:05;;;;;;;9.50;7.13;;;14.40;99.90;;;;;;5115515;28;20400;-73
2022/10/21 09:21:44;;;;;;;8.07;7.10;;;14.30;99.90;;;;;;5119316;28;20965;-74
2022/10/21 09:24:18;;;;;;;7.78;7.07;;;14.40;99.90;;;;;;5106282;28;20408;-74
2022/10/21 09:26:48;;;;;;;7.60;6.72;;;14.40;99.90;;;;;;5124506;27;20459;-72
2022/10/21 09:29:25;;;;;;;8.98;7.60;;;14.40;99.90;;;;;;5100260;28;20408;-74
2022/10/21 09:31:52;;;;;;;12.30;9.20;;;14.40;99.90;;;;;;5110408;28;20428;-74
2022/10/21 09:34:27;;;;;;;10.50;9.40;;;14.40;99.90;;;;;;5109996;28;20412;-74
2022/10/21 09:36:59;;;;;;;13.15;11.95;;;14.40;99.90;;;;;;5108791;28;20416;-74
2022/10/21 09:39:34;;;;;;;9.70;8.80;;;14.40;99.90;;;;;;5104005;28;20417;-74
2022/10/21 09:42:00;;;;;;;8.88;7.90;;;14.40;99.90;;;;;;5108205;28;20431;-74
2022/10/21 09:44:28;;;;;;;9.65;8.48;;;14.40;99.90;;;;;;5103011;28;20419;-75
2022/10/21 09:46:55;;;;;;;9.60;8.60;;;14.40;99.90;;;;;;5112165;27;20412;-74
2022/10/21 09:49:28;;;;;;;9.02;7.50;;;14.40;99.90;;;;;;5097414;28;20461;-73
2022/10/21 09:51:59;;;;;;;8.23;7.35;;;14.40;99.90;;;;;;5096314;28;20418;-74
2022/10/21 09:54:31;;;;;;;10.38;7.70;;;14.40;99.90;;;;;;5104525;28;20431;-74
2022/10/21 09:57:03;;;;;;;8.68;7.35;;;14.40;99.90;;;;;;5110345;27;20824;-73
2022/10/21 09:59:31;;;;;;;8.63;7.72;;;14.40;99.90;;;;;;5122885;27;20416;-74
2022/10/21 10:02:06;;;;;;;8.65;7.63;;;14.40;99.90;;;;;;5132479;28;20977;-73
2022/10/21 10:04:34;;;;;;;8.40;7.57;;;14.50;99.90;;;;;;5135295;28;20439;-72
2022/10/21 10:07:19;;;;;;;9.25;8.07;;;14.50;99.90;;;;;;5115842;28;21034;-73
2022/10/21 10:09:47;;;;;;;9.00;7.75;;;14.60;99.90;;;;;;5115010;28;20420;-73
2022/10/21 10:12:16;;;;;;;12.90;9.00;;;14.70;99.90;;;;;;5108215;27;20414;-74
2022/10/21 10:14:44;;;;;;;8.20;7.03;;;14.70;99.90;;;;;;5131342;27;20419;-72
2022/10/21 10:17:35;;;;;;;6.70;6.10;;;14.80;99.90;;;;;;5115727;27;20978;-71
2022/10/21 10:20:18;;;;;;;9.73;6.90;;;14.80;99.90;;;;;;5136031;27;20424;-72
2022/10/21 10:23:06;;;;;;;8.23;7.43;;;14.80;99.90;;;;;;5143630;27;20415;-71
2022/10/21 10:25:34;;;;;;;8.70;7.50;;;14.90;99.90;;;;;;5128829;27;20432;-73
2022/10/21 10:28:04;;;;;;;8.30;7.50;;;14.90;99.90;;;;;;5112531;27;20434;-75
2022/10/21 10:30:38;;;;;;;8.85;7.40;;;14.90;99.90;;;;;;5094026;28;20422;-73
2022/10/21 10:33:09;;;;;;;9.23;7.90;;;14.90;99.90;;;;;;5112767;27;20415;-73
2022/10/21 10:35:38;;;;;;;7.72;6.97;;;14.90;99.90;;;;;;5120964;27;20781;-72
2022/10/21 10:38:06;;;;;;;8.40;7.68;;;14.90;99.90;;;;;;5117410;27;20428;-73
2022/10/21 10:40:38;;;;;;;8.40;7.30;;;14.90;99.90;;;;;;5107884;28;20428;-73
2022/10/21 10:43:12;;;;;;;9.27;8.30;;;14.90;99.90;;;;;;5106476;28;20447;-72
2022/10/21 10:45:47;;;;;;;9.48;7.72;;;14.90;99.90;;;;;;5113475;28;20419;-73
2022/10/21 10:48:20;;;;;;;9.25;8.35;;;14.90;99.90;;;;;;5103802;28;20436;-73
2022/10/21 10:50:49;;;;;;;10.50;8.70;;;14.90;99.90;;;;;;5104992;28;20928;-72
2022/10/21 10:53:26;;;;;;;9.30;8.40;;;14.90;99.90;;;;;;5105447;28;20427;-73
2022/10/21 10:56:00;;;;;;;9.43;8.63;;;14.90;99.90;;;;;;5104813;28;20485;-74
2022/10/21 10:58:31;;;;;;;10.73;8.75;;;14.90;99.90;;;;;;5105183;28;20431;-75
2022/10/21 11:01:02;;;;;;;9.33;8.43;;;14.90;99.90;;;;;;5106605;28;20945;-73
2022/10/21 11:03:38;;;;;;;8.90;8.10;;;14.90;99.90;;;;;;5105449;28;20431;-71
2022/10/21 11:06:12;;;;;;;10.02;8.35;;;14.90;99.90;;;;;;5106412;28;20420;-72
2022/10/21 11:08:43;;;;;;;9.10;8.20;;;14.90;99.90;;;;;;5104256;28;20428;-74
2022/10/21 11:11:15;;;;;;;10.10;8.43;;;15.00;99.90;;;;;;5106194;28;20416;-72
2022/10/21 11:13:42;;;;;;;8.75;7.85;;;15.00;99.90;;;;;;5105651;28;20920;-72
2022/10/21 11:16:24;;;;;;;7.68;6.88;;;15.00;99.90;;;;;;5105837;28;20420;-72
2022/10/21 11:18:59;;;;;;;9.95;7.00;;;15.10;99.90;;;;;;5105450;28;20427;-73
2022/10/21 11:21:45;;;;;;;7.95;7.25;;;15.10;99.90;;;;;;5106102;28;20428;-73
2022/10/21 11:24:49;;;;;;;11.87;9.40;;;15.20;99.90;;;;;;5103913;28;20424;-73
2022/10/21 11:27:27;;;;;;;13.48;11.10;;;15.20;99.90;;;;;;5085213;28;21051;-72
2022/10/21 11:30:02;;;;;;;14.45;11.73;;;15.30;99.90;;;;;;5105561;28;20408;-72
2022/10/21 11:32:38;;;;;;;11.80;10.70;;;15.40;99.90;;;;;;5104156;28;20436;-73
2022/10/21 11:35:16;;;;;;;13.13;10.40;;;15.50;99.90;;;;;;5105840;28;20435;-72
2022/10/21 11:37:56;;;;;;;9.35;8.45;;;15.60;99.90;;;;;;5106099;28;20423;-73
2022/10/21 11:40:33;;;;;;;8.73;7.82;;;15.70;99.90;;;;;;5105773;28;20553;-73
2022/10/21 11:43:12;;;;;;;8.23;6.70;;;15.80;99.90;;;;;;5104934;28;20439;-74
2022/10/21 11:45:49;;;;;;;6.80;6.10;;;15.90;99.90;;;;;;5119001;28;20443;-72
2022/10/21 11:48:33;;;;;;;6.32;5.55;;;16.00;99.90;;;;;;5106796;28;20412;-72
2022/10/21 11:51:09;;;;;;;7.05;5.90;;;16.00;99.90;;;;;;5106292;28;20412;-72
2022/10/21 11:53:48;;;;;;;5.40;4.90;;;16.10;99.90;;;;;;5104807;28;20427;-70
2022/10/21 11:56:27;;;;;;;5.50;5.00;;;16.30;99.90;;;;;;5105529;28;20462;-70
2022/10/21 11:59:05;;;;;;;5.35;4.20;;;16.80;99.90;;;;;;5107476;28;20424;-73
2022/10/21 12:01:47;;;;;;;5.00;3.80;;;17.60;99.90;;;;;;5107761;28;20436;-72
2022/10/21 12:04:35;;;;;;;4.05;3.22;;;18.20;97.00;;;;;;5109758;28;20428;-72
2022/10/21 12:07:13;;;;;;;4.50;3.67;;;18.30;94.40;;;;;;5110009;28;20420;-71
2022/10/21 12:09:47;;;;;;;3.90;3.42;;;18.10;94.30;;;;;;5109322;28;20408;-71
2022/10/21 12:12:18;;;;;;;5.80;3.65;;;17.90;95.00;;;;;;5108885;28;20473;-71
2022/10/21 12:14:49;;;;;;;3.70;3.30;;;18.30;95.60;;;;;;5108836;27;20409;-72
2022/10/21 12:17:24;;;;;;;4.82;3.45;;;18.70;95.10;;;;;;5104790;28;20524;-73
2022/10/21 12:19:56;;;;;;;5.00;3.30;;;18.90;93.40;;;;;;5130704;28;20435;-71
2022/10/21 12:22:25;;;;;;;3.47;3.10;;;19.00;93.50;;;;;;5136136;28;20508;-71
2022/10/21 12:25:01;;;;;;;4.10;2.60;;;19.20;93.20;;;;;;5105546;28;20523;-73
2022/10/21 12:27:34;;;;;;;4.70;2.83;;;19.40;91.60;;;;;;5105477;28;20424;-72
2022/10/21 12:30:09;;;;;;;2.80;2.28;;;19.60;91.10;;;;;;5107996;28;20420;-69
2022/10/21 12:32:44;;;;;;;3.67;2.45;;;19.70;90.10;;;;;;5115640;28;20477;-70
2022/10/21 12:35:13;;;;;;;2.80;2.50;;;19.70;90.00;;;;;;5121236;28;20432;-69
2022/10/21 12:38:04;;;;;;;3.03;2.30;;;20.20;90.10;;;;;;5106118;28;20516;-70
2022/10/21 12:40:38;;;;;;;3.05;2.00;;;21.00;86.50;;;;;;5109134;27;20428;-70
2022/10/21 12:43:18;;;;;;;3.90;2.00;;;20.80;85.70;;;;;;5108612;27;20415;-69
2022/10/21 12:45:47;;;;;;;2.85;2.22;;;21.00;84.90;;;;;;5116623;28;20458;-70
2022/10/21 12:48:31;;;;;;;3.80;1.80;;;21.60;82.10;;;;;;5110862;28;20416;-70
2022/10/21 12:50:59;;;;;;;3.22;1.70;;;21.80;78.80;;;;;;5112160;28;20498;-70
2022/10/21 12:53:35;;;;;;;3.45;2.00;;;21.40;80.50;;;;;;5107882;27;20427;-72
2022/10/21 12:56:02;;;;;;;2.78;1.90;;;21.00;79.50;;;;;;5108036;28;20423;-72
2022/10/21 12:58:36;;;;;;;2.67;1.85;;;20.50;82.70;;;;;;5121431;22;21070;-68